Time;durP1;ratioP1;P1;durP2;ratioP2;P2;SDS_P1;SDS_P2;PMS_P1;PMS_P2;Temp;Humidity;BMP_temperature;BMP_pressure;BME280_temperature;BME280_humidity;BME280_pressure;Samples;Min_cycle;Max_cycle;Signal;HPM_P1;HPM_P2
2022/09/25 00:00:53;;;;;;;5.85;4.15;;;;;;;7.65;100.00;99958.22;1717956;83;21528;-59
2022/09/25 00:03:21;;;;;;;5.72;3.98;;;;;;;7.69;100.00;99958.20;1718537;82;21136;-59
2022/09/25 00:05:49;;;;;;;7.72;5.10;;;;;;;7.77;100.00;99958.17;1718141;83;21273;-60
2022/09/25 00:08:17;;;;;;;8.53;5.25;;;;;;;7.73;100.00;99954.31;1718651;83;21339;-59
2022/09/25 00:10:48;;;;;;;7.95;5.10;;;;;;;7.83;100.00;99952.77;1718290;83;21050;-60
2022/09/25 00:13:19;;;;;;;7.55;5.42;;;;;;;7.87;100.00;99954.84;1718817;83;21152;-59
2022/09/25 00:15:53;;;;;;;7.78;5.75;;;;;;;7.90;100.00;99955.80;1718550;83;21034;-59
2022/09/25 00:19:48;;;;;;;8.03;6.05;;;;;;;7.98;100.00;99950.55;1718377;83;21136;-59
2022/09/25 00:20:59;;;;;;;9.03;6.15;;;;;;;8.04;100.00;99955.05;1719396;82;20931;-59
2022/09/25 00:23:26;;;;;;;9.25;5.40;;;;;;;8.09;100.00;99958.91;1718474;83;20986;-59
2022/09/25 00:25:55;;;;;;;8.48;5.70;;;;;;;8.10;100.00;99963.12;1718702;83;20974;-60
2022/09/25 00:28:22;;;;;;;9.50;6.40;;;;;;;8.10;100.00;99964.42;1718933;83;20938;-62
2022/09/25 00:30:49;;;;;;;9.23;6.10;;;;;;;8.09;100.00;99962.31;1718475;83;22100;-59
2022/09/25 00:33:17;;;;;;;9.13;5.72;;;;;;;8.07;100.00;99956.97;1718201;83;21381;-60
2022/09/25 00:35:44;;;;;;;9.13;6.45;;;;;;;8.07;100.00;99964.30;1718698;83;21009;-59
2022/09/25 00:38:11;;;;;;;8.33;5.83;;;;;;;8.08;100.00;99963.80;1718756;82;20979;-59
2022/09/25 00:40:38;;;;;;;8.90;5.87;;;;;;;8.10;100.00;99961.33;1718427;83;20887;-61
2022/09/25 00:43:17;;;;;;;8.70;5.62;;;;;;;8.09;100.00;99961.02;1718011;83;21017;-59
2022/09/25 00:45:44;;;;;;;8.08;5.35;;;;;;;8.13;100.00;99966.67;1716796;82;20986;-59
2022/09/25 00:48:13;;;;;;;9.73;5.47;;;;;;;8.14;100.00;99970.87;1703420;83;20879;-59
2022/09/25 00:50:54;;;;;;;8.77;6.00;;;;;;;8.09;100.00;99966.20;1717900;83;21134;-61
2022/09/25 00:53:27;;;;;;;10.05;6.42;;;;;;;8.12;100.00;99971.06;1718834;83;21250;-57
2022/09/25 00:55:55;;;;;;;7.75;5.20;;;;;;;8.12;100.00;99967.66;1718896;83;21229;-57
2022/09/25 00:58:23;;;;;;;8.00;5.37;;;;;;;8.22;100.00;99973.41;1718677;83;20966;-60
2022/09/25 01:00:50;;;;;;;8.93;5.50;;;;;;;8.26;100.00;99966.91;1717972;81;21091;-57
2022/09/25 01:03:19;;;;;;;8.27;5.30;;;;;;;8.18;100.00;99963.05;1718746;83;21277;-57
2022/09/25 01:05:46;;;;;;;8.08;5.50;;;;;;;8.08;100.00;99963.80;1722288;83;21205;-58
2022/09/25 01:08:21;;;;;;;10.15;6.42;;;;;;;8.11;100.00;99964.26;1721851;83;22225;-58
2022/09/25 01:10:48;;;;;;;8.00;5.50;;;;;;;8.09;100.00;99964.11;1722215;83;20961;-57
2022/09/25 01:13:15;;;;;;;8.35;5.37;;;;;;;8.10;100.00;99961.82;1722307;83;20966;-57
2022/09/25 01:15:56;;;;;;;7.70;4.70;;;;;;;8.09;100.00;99964.11;1722239;83;20976;-57
2022/09/25 01:18:58;;;;;;;6.75;4.55;;;;;;;8.09;100.00;99962.31;1721773;83;22124;-57
2022/09/25 01:21:32;;;;;;;10.10;4.65;;;;;;;8.07;100.00;99963.45;1721693;83;21238;-60
2022/09/25 01:24:38;;;;;;;7.22;5.03;;;;;;;8.02;100.00;99964.79;1722466;83;20976;-57
2022/09/25 01:27:33;;;;;;;7.10;4.60;;;;;;;8.04;100.00;99959.44;1721236;83;21484;-58
2022/09/25 01:30:13;;;;;;;6.75;4.50;;;;;;;8.02;100.00;99962.19;1722520;83;20885;-57
2022/09/25 01:33:09;;;;;;;5.78;3.90;;;;;;;8.04;100.00;99962.84;1722527;83;22315;-57
2022/09/25 01:36:08;;;;;;;7.25;4.42;;;;;;;8.01;100.00;99957.19;1722463;83;21752;-58
2022/09/25 01:38:48;;;;;;;6.83;5.03;;;;;;;8.03;100.00;99956.51;1718332;83;21507;-58
2022/09/25 01:41:30;;;;;;;7.87;4.90;;;;;;;8.04;100.00;99952.95;1722189;83;21511;-61
2022/09/25 01:44:03;;;;;;;8.35;5.37;;;;;;;8.03;100.00;99957.34;1703929;83;29048;-58
2022/09/25 01:46:34;;;;;;;8.40;4.90;;;;;;;8.04;100.00;99955.05;1689305;83;20863;-58
2022/09/25 01:49:06;;;;;;;7.90;4.97;;;;;;;8.03;100.00;99953.45;1722165;83;21250;-58
2022/09/25 01:51:40;;;;;;;7.53;5.10;;;;;;;8.01;100.00;99952.80;1720501;83;21003;-57
2022/09/25 01:54:12;;;;;;;7.17;4.85;;;;;;;8.02;100.00;99953.11;1686689;84;21553;-58
2022/09/25 01:56:56;;;;;;;7.50;4.80;;;;;;;7.99;100.00;99953.48;1687458;84;21057;-60
2022/09/25 01:59:46;;;;;;;7.28;4.83;;;;;;;7.94;100.00;99953.17;1687642;84;21122;-58
2022/09/25 02:02:17;;;;;;;8.30;4.75;;;;;;;7.92;100.00;99955.15;1687790;84;21827;-61
2022/09/25 02:04:54;;;;;;;;;;;;;;;7.92;100.00;99952.55;1664825;84;21037;-57
2022/09/25 02:07:26;;;;;;;7.25;4.67;;;;;;;7.88;100.00;99953.88;1694496;84;20408;-58
2022/09/25 02:09:56;;;;;;;6.92;4.87;;;;;;;7.87;100.00;99953.55;1693886;84;21010;-61
2022/09/25 02:12:33;;;;;;;7.00;4.50;;;;;;;7.78;100.00;99950.20;1694013;84;22332;-58
2022/09/25 02:15:01;;;;;;;7.67;4.90;;;;;;;7.74;100.00;99950.73;1694024;84;21120;-58
2022/09/25 02:20:31;;;;;;;5.22;3.47;;;;;;;7.71;100.00;99945.88;1693879;84;22125;-58
2022/09/25 02:23:03;;;;;;;6.72;4.17;;;;;;;7.70;100.00;99946.86;1694155;84;21058;-58
2022/09/25 02:25:37;;;;;;;8.55;4.60;;;;;;;7.71;100.00;99954.46;1692877;84;20955;-60
2022/09/25 02:28:04;;;;;;;7.92;4.72;;;;;;;7.76;100.00;99962.53;1694188;84;21876;-57
2022/09/25 02:30:31;;;;;;;7.53;4.45;;;;;;;7.76;100.00;99962.53;1693920;84;20904;-57
2022/09/25 02:32:58;;;;;;;8.28;5.08;;;;;;;7.78;100.00;99959.28;1693942;84;20994;-61
2022/09/25 02:35:26;;;;;;;6.20;3.80;;;;;;;7.84;100.00;99959.56;1693139;84;21038;-58
2022/09/25 02:37:54;;;;;;;6.17;3.70;;;;;;;7.84;100.00;99960.41;1693939;84;21072;-59
2022/09/25 02:40:38;;;;;;;8.25;3.75;;;;;;;7.86;100.00;99964.91;1693954;84;21215;-58
2022/09/25 02:43:26;;;;;;;6.72;3.55;;;;;;;7.89;100.00;99968.47;1692744;84;20963;-58
2022/09/25 02:46:04;;;;;;;7.20;3.92;;;;;;;7.91;100.00;99965.19;1661225;84;21629;-58
2022/09/25 02:48:51;;;;;;;6.62;3.47;;;;;;;7.92;100.00;99974.61;1693589;84;20927;-61
2022/09/25 02:51:34;;;;;;;5.87;3.52;;;;;;;7.94;100.00;99973.13;1693937;84;21005;-58
2022/09/25 02:54:19;;;;;;;6.17;3.72;;;;;;;7.94;100.00;99970.04;1693644;84;21176;-58
2022/09/25 02:56:50;;;;;;;4.95;3.52;;;;;;;7.98;100.00;99974.40;1693814;84;21094;-58
2022/09/25 02:59:48;;;;;;;5.80;3.30;;;;;;;8.15;100.00;99973.81;1693479;84;21070;-58
2022/09/25 03:02:15;;;;;;;4.90;3.15;;;;;;;8.11;100.00;99973.84;1693370;84;21105;-58
2022/09/25 03:04:42;;;;;;;5.15;3.10;;;;;;;8.04;100.00;99970.63;1691601;83;20960;-58
2022/09/25 03:07:09;;;;;;;6.93;3.33;;;;;;;8.08;100.00;99972.88;1686175;85;21338;-61
2022/09/25 03:09:37;;;;;;;5.08;3.77;;;;;;;8.06;100.00;99978.23;1641212;85;21651;-58
2022/09/25 03:12:04;;;;;;;6.15;4.03;;;;;;;8.10;100.00;99976.91;1686217;85;21178;-58
2022/09/25 03:14:32;;;;;;;6.05;3.47;;;;;;;8.13;100.00;99984.84;1686411;85;21012;-58
2022/09/25 03:17:02;;;;;;;5.60;3.55;;;;;;;8.14;100.00;99986.45;1686417;85;20940;-61
2022/09/25 03:19:30;;;;;;;5.75;3.25;;;;;;;8.14;100.00;99989.05;1686291;85;21131;-58
2022/09/25 03:21:58;;;;;;;6.25;3.40;;;;;;;8.15;100.00;99986.79;1699310;81;20890;-62
2022/09/25 03:24:25;;;;;;;6.30;3.47;;;;;;;8.07;100.00;99984.23;1717667;83;21102;-58
2022/09/25 03:26:53;;;;;;;7.10;3.20;;;;;;;8.01;100.00;99980.05;1716930;83;21518;-59
2022/09/25 03:29:21;;;;;;;7.00;3.55;;;;;;;8.02;100.00;99986.05;1716684;83;22256;-61
2022/09/25 03:31:48;;;;;;;5.20;2.83;;;;;;;8.04;100.00;99987.50;1717016;83;21266;-61
2022/09/25 03:34:16;;;;;;;6.25;3.12;;;;;;;8.03;100.00;99983.77;1716689;83;20931;-59
2022/09/25 03:36:48;;;;;;;5.80;3.70;;;;;;;7.97;100.00;99989.66;1718115;83;21120;-58
2022/09/25 03:39:16;;;;;;;4.33;2.80;;;;;;;7.97;100.00;99989.17;1717332;83;21072;-58
2022/09/25 03:41:43;;;;;;;5.70;3.35;;;;;;;8.00;100.00;99984.94;1716931;83;21009;-58
2022/09/25 03:44:10;;;;;;;5.97;3.10;;;;;;;8.04;100.00;99988.00;1704928;82;21268;-58
2022/09/25 03:46:37;;;;;;;5.20;3.10;;;;;;;8.04;100.00;99986.20;1701649;83;21127;-58
2022/09/25 03:49:04;;;;;;;5.20;3.75;;;;;;;8.16;100.00;99988.39;1705738;83;20921;-58
2022/09/25 03:51:32;;;;;;;6.30;3.63;;;;;;;8.20;100.00;99992.26;1705025;83;21076;-60
2022/09/25 03:53:59;;;;;;;4.90;3.00;;;;;;;8.29;100.00;99995.09;1709995;83;21711;-58
2022/09/25 03:56:28;;;;;;;5.00;3.40;;;;;;;8.34;100.00;99998.00;1707155;83;21814;-58
2022/09/25 03:58:56;;;;;;;5.07;2.90;;;;;;;8.40;100.00;99988.72;1707291;83;21807;-58
2022/09/25 04:01:23;;;;;;;5.47;2.90;;;;;;;8.47;100.00;99994.83;1708456;83;21870;-58
2022/09/25 04:03:52;;;;;;;5.97;3.27;;;;;;;8.47;100.00;99995.63;1704019;82;21175;-58
2022/09/25 04:06:22;;;;;;;6.77;3.37;;;;;;;8.47;100.00;99993.03;1686299;84;21249;-58
2022/09/25 04:08:51;;;;;;;5.97;3.40;;;;;;;8.66;100.00;99993.52;1686434;84;21291;-58
2022/09/25 04:11:19;;;;;;;5.87;3.53;;;;;;;8.86;100.00;99992.02;1652958;85;21014;-60
2022/09/25 04:13:47;;;;;;;5.77;3.83;;;;;;;9.12;100.00;99994.17;1686188;84;21231;-58
2022/09/25 04:16:16;;;;;;;5.43;3.40;;;;;;;9.67;100.00;99990.76;1685697;84;21248;-58
2022/09/25 04:18:45;;;;;;;5.43;2.90;;;;;;;10.29;100.00;99989.38;1686424;85;21489;-58
2022/09/25 04:21:12;;;;;;;4.67;2.93;;;;;;;10.96;100.00;99984.45;1686195;84;21179;-62
2022/09/25 04:23:40;;;;;;;6.27;2.70;;;;;;;12.39;100.00;99976.16;1686286;84;21324;-58
2022/09/25 04:26:08;;;;;;;5.83;3.13;;;;;;;12.39;100.00;99976.16;1686311;84;21748;-59
2022/09/25 04:28:35;;;;;;;4.67;2.80;;;;;;;13.13;100.00;99977.63;1686345;85;21786;-58
2022/09/25 04:31:02;;;;;;;3.93;2.63;;;;;;;13.66;100.00;99979.25;1686730;84;21056;-58
2022/09/25 04:33:45;;;;;;;5.37;3.10;;;;;;;13.96;100.00;99976.05;1685839;84;21153;-59
2022/09/25 04:36:16;;;;;;;7.00;3.40;;;;;;;14.18;100.00;99976.00;1686017;84;21059;-58
2022/09/25 04:38:43;;;;;;;;;;;;;;;14.17;100.00;99978.81;1689075;84;21583;-58
2022/09/25 04:41:11;;;;;;;6.47;3.50;;;;;;;14.38;100.00;99975.04;1685789;84;20132;-58
2022/09/25 04:43:40;;;;;;;4.70;3.03;;;;;;;14.61;100.00;99971.33;1686551;85;22461;-57
2022/09/25 04:46:09;;;;;;;5.10;2.63;;;;;;;14.82;100.00;99972.75;1685866;84;21116;-58
2022/09/25 04:48:37;;;;;;;4.77;2.93;;;;;;;14.63;100.00;99973.23;1686410;84;21846;-58
2022/09/25 04:51:04;;;;;;;5.37;3.00;;;;;;;14.38;100.00;99973.22;1686452;84;21066;-61
2022/09/25 04:53:34;;;;;;;4.90;2.60;;;;;;;14.23;100.00;99969.60;1686098;84;21000;-58
2022/09/25 04:56:03;;;;;;;3.97;2.33;;;;;;;14.26;100.00;99974.42;1685835;84;21094;-59
2022/09/25 04:58:30;;;;;;;3.73;2.50;;;;;;;14.11;100.00;99970.80;1686479;84;22471;-58
2022/09/25 05:01:03;;;;;;;4.33;2.90;;;;;;;13.85;100.00;99974.40;1686363;84;21056;-61
2022/09/25 05:03:31;;;;;;;3.73;2.53;;;;;;;13.53;100.00;99974.09;1686487;84;21038;-58
2022/09/25 05:05:58;;;;;;;3.97;2.40;;;;;;;13.26;100.00;99971.59;1686675;84;21490;-57
2022/09/25 05:08:26;;;;;;;3.50;2.27;;;;;;;13.10;100.00;99982.47;1657316;86;21082;-57
2022/09/25 05:10:54;;;;;;;3.90;2.30;;;;;;;13.00;100.00;99984.22;1687991;84;21172;-59
2022/09/25 05:13:22;;;;;;;3.70;2.33;;;;;;;13.06;100.00;99979.45;1657327;86;22277;-57
2022/09/25 05:15:50;;;;;;;3.40;2.13;;;;;;;13.26;100.00;99989.91;1688652;84;21011;-61
2022/09/25 05:18:19;;;;;;;4.40;2.30;;;;;;;13.51;100.00;99986.06;1656752;86;20976;-57
2022/09/25 05:20:46;;;;;;;5.10;2.60;;;;;;;13.68;100.00;99989.53;1687922;84;21493;-58
2022/09/25 05:23:14;;;;;;;4.00;2.67;;;;;;;13.75;100.00;99992.41;1657313;86;22444;-57
2022/09/25 05:25:41;;;;;;;4.57;2.63;;;;;;;13.58;100.00;99983.42;1688350;84;20955;-57
2022/09/25 05:28:09;;;;;;;4.07;2.90;;;;;;;13.38;100.00;99993.48;1656745;86;21537;-58
2022/09/25 05:30:37;;;;;;;4.50;2.30;;;;;;;13.18;100.00;99992.70;1688520;84;21102;-60
2022/09/25 05:33:06;;;;;;;4.40;2.70;;;;;;;13.07;100.00;99996.78;1657068;86;20964;-57
2022/09/25 05:35:33;;;;;;;4.83;2.97;;;;;;;12.99;100.00;99998.29;1688586;84;21268;-58
2022/09/25 05:38:00;;;;;;;6.37;3.17;;;;;;;12.96;100.00;99998.72;1656640;86;21467;-60
2022/09/25 05:40:28;;;;;;;5.67;2.87;;;;;;;12.97;100.00;99998.22;1688447;84;21023;-57
2022/09/25 05:42:57;;;;;;;4.00;2.50;;;;;;;12.97;100.00;100002.14;1656589;86;20948;-59
2022/09/25 05:45:24;;;;;;;5.53;2.60;;;;;;;12.96;100.00;99991.38;1688465;84;21106;-57
2022/09/25 05:48:02;;;;;;;5.17;2.87;;;;;;;12.93;100.00;100002.25;1657709;86;22002;-60
2022/09/25 05:50:33;;;;;;;4.43;2.50;;;;;;;12.86;100.00;99999.13;1688140;84;21073;-59
2022/09/25 05:53:02;;;;;;;4.30;2.57;;;;;;;12.87;100.00;99998.11;1688284;84;21702;-56
2022/09/25 05:55:30;;;;;;;6.10;3.00;;;;;;;12.83;100.00;100004.77;1657219;86;21016;-56
2022/09/25 05:58:03;;;;;;;4.57;2.90;;;;;;;12.81;100.00;100006.80;1687935;84;21007;-56
2022/09/25 06:00:31;;;;;;;4.93;2.97;;;;;;;12.87;100.00;100002.04;1657072;86;21912;-61
2022/09/25 06:03:00;;;;;;;3.87;2.80;;;;;;;12.92;100.00;100011.91;1688291;84;20932;-56
2022/09/25 06:05:27;;;;;;;5.67;3.13;;;;;;;13.01;100.00;100003.33;1661275;84;20983;-56
2022/09/25 06:07:55;;;;;;;7.03;2.63;;;;;;;13.32;100.00;100011.31;1652558;85;21059;-57
2022/09/25 06:10:25;;;;;;;5.23;2.87;;;;;;;13.32;100.00;100011.31;1686556;85;21568;-58
2022/09/25 06:12:57;;;;;;;5.60;3.10;;;;;;;13.71;100.00;100013.98;1697287;81;21050;-57
2022/09/25 06:15:40;;;;;;;5.13;3.07;;;;;;;13.96;100.00;100010.13;1724740;82;21522;-60
2022/09/25 06:18:09;;;;;;;4.23;2.53;;;;;;;14.01;100.00;100014.22;1744997;82;20978;-59
2022/09/25 06:20:37;;;;;;;4.13;2.80;;;;;;;13.96;100.00;100024.02;1744881;82;20936;-56
2022/09/25 06:23:05;;;;;;;6.50;2.67;;;;;;;14.02;100.00;100023.70;1745381;82;20927;-55
2022/09/25 06:25:32;;;;;;;3.83;2.70;;;;;;;14.09;100.00;100023.13;1744907;82;21113;-57
2022/09/25 06:28:00;;;;;;;4.33;2.80;;;;;;;14.14;100.00;100033.80;1745130;82;20932;-55
2022/09/25 06:30:34;;;;;;;4.43;2.80;;;;;;;14.15;100.00;100024.12;1744722;82;20975;-61
2022/09/25 06:33:09;;;;;;;6.80;2.40;;;;;;;14.32;100.00;100031.78;1745143;82;21014;-56
2022/09/25 06:35:42;;;;;;;3.53;2.27;;;;;;;14.53;100.00;100022.75;1744489;82;20904;-58
2022/09/25 06:38:09;;;;;;;3.80;2.30;;;;;;;14.71;100.00;100029.36;1745199;82;22503;-61
2022/09/25 06:40:39;;;;;;;6.10;2.80;;;;;;;14.97;100.00;100028.83;1744944;82;20924;-57
2022/09/25 06:43:09;;;;;;;4.20;2.30;;;;;;;15.14;100.00;100029.84;1745529;82;20932;-56
2022/09/25 06:45:37;;;;;;;4.90;2.43;;;;;;;15.25;100.00;100021.24;1744993;82;20975;-57
2022/09/25 06:48:12;;;;;;;4.27;2.23;;;;;;;15.35;100.00;100034.39;1739062;81;21098;-60
2022/09/25 06:50:49;;;;;;;4.47;2.20;;;;;;;15.47;100.00;100041.30;1735150;82;21844;-56
2022/09/25 06:53:18;;;;;;;4.73;2.47;;;;;;;15.57;100.00;100042.11;1745039;82;20976;-60
2022/09/25 06:55:45;;;;;;;3.40;2.30;;;;;;;15.66;100.00;100045.26;1745145;82;21012;-56
2022/09/25 06:58:16;;;;;;;4.70;2.27;;;;;;;15.63;100.00;100051.72;1744630;82;21524;-56
2022/09/25 07:00:50;;;;;;;3.93;2.17;;;;;;;15.61;100.00;100045.90;1744857;82;21022;-56
2022/09/25 07:06:06;;;;;;;5.60;2.40;;;;;;;15.41;100.00;100049.25;1746487;81;20945;-56
2022/09/25 07:08:35;;;;;;;4.17;2.50;;;;;;;15.34;100.00;100048.00;1748561;81;21482;-57
2022/09/25 07:11:04;;;;;;;5.00;2.17;;;;;;;15.25;100.00;100042.25;1674325;83;21067;-61
2022/09/25 07:13:34;;;;;;;3.23;1.93;;;;;;;15.16;100.00;100041.46;1721344;81;21052;-57
2022/09/25 07:16:06;;;;;;;4.60;2.27;;;;;;;15.13;100.00;100047.94;1718602;83;21265;-57
2022/09/25 07:18:34;;;;;;;3.50;2.10;;;;;;;15.15;100.00;100041.14;1718682;83;20994;-56
2022/09/25 07:21:03;;;;;;;5.93;2.30;;;;;;;15.26;100.00;100056.18;1718171;83;21013;-58
2022/09/25 07:23:32;;;;;;;4.33;2.30;;;;;;;15.44;100.00;100037.00;1718258;83;21064;-57
2022/09/25 07:26:20;;;;;;;4.13;2.10;;;;;;;15.50;100.00;100046.12;1718421;83;21413;-56
2022/09/25 07:28:46;;;;;;;4.60;2.50;;;;;;;15.64;100.00;100042.80;1718604;82;21240;-57
2022/09/25 07:31:21;;;;;;;3.37;2.33;;;;;;;15.89;100.00;100051.13;1718576;83;20963;-61
2022/09/25 07:33:48;;;;;;;3.60;1.93;;;;;;;16.01;100.00;100043.56;1708607;81;21139;-59
2022/09/25 07:36:15;;;;;;;3.20;2.00;;;;;;;16.18;100.00;100041.63;1658853;83;20963;-63
2022/09/25 07:38:44;;;;;;;3.50;2.30;;;;;;;16.30;100.00;100037.99;1717498;81;21029;-60
2022/09/25 07:41:12;;;;;;;4.53;2.57;;;;;;;16.26;100.00;100030.27;1705700;81;21293;-60
2022/09/25 07:43:42;;;;;;;3.80;2.20;;;;;;;16.42;100.00;100040.64;1747223;81;21034;-57
2022/09/25 07:46:09;;;;;;;3.77;2.17;;;;;;;16.38;100.00;100043.95;1733624;82;20953;-58
2022/09/25 07:48:37;;;;;;;3.43;1.80;;;;;;;16.31;100.00;100038.78;1748749;81;21569;-58
2022/09/25 07:51:08;;;;;;;3.63;2.33;;;;;;;16.35;100.00;100033.87;1721127;81;21088;-58
2022/09/25 07:53:36;;;;;;;3.00;1.72;;;;;;;16.19;100.00;100041.39;1695261;83;21577;-57
2022/09/25 07:56:03;;;;;;;4.43;2.13;;;;;;;16.11;100.00;100048.81;1689955;84;20933;-56
2022/09/25 07:58:30;;;;;;;3.97;1.90;;;;;;;16.08;100.00;100044.00;1714355;81;20885;-57
2022/09/25 08:01:02;;;;;;;4.23;1.80;;;;;;;16.21;100.00;100042.47;1726353;81;21057;-56
2022/09/25 08:03:30;;;;;;;3.70;1.90;;;;;;;16.39;100.00;100038.97;1716493;82;20981;-57
2022/09/25 08:06:05;;;;;;;3.27;2.00;;;;;;;16.62;100.00;100039.00;1736594;81;21097;-56
2022/09/25 08:08:33;;;;;;;3.93;2.33;;;;;;;16.94;100.00;100024.23;1715859;83;20938;-57
2022/09/25 08:11:01;;;;;;;2.07;1.07;;;;;;;17.23;100.00;100035.09;1717371;83;20994;-58
2022/09/25 08:13:31;;;;;;;2.70;1.00;;;;;;;17.57;92.42;100027.34;1717057;83;20977;-57
2022/09/25 08:16:04;;;;;;;1.87;0.90;;;;;;;17.96;77.81;100028.90;1717332;83;21440;-57
2022/09/25 08:18:31;;;;;;;2.00;1.03;;;;;;;18.67;74.95;100027.39;1716971;83;21128;-56
2022/09/25 08:21:02;;;;;;;1.83;1.10;;;;;;;19.74;65.45;100027.22;1717070;83;21008;-60
2022/09/25 08:23:31;;;;;;;3.00;1.10;;;;;;;20.40;56.43;100026.47;1717103;83;21128;-56
2022/09/25 08:25:58;;;;;;;3.37;1.10;;;;;;;20.59;52.60;100034.31;1716998;83;20985;-58
2022/09/25 08:28:25;;;;;;;2.77;1.17;;;;;;;20.58;49.98;100038.02;1716840;83;20937;-56
2022/09/25 08:30:52;;;;;;;2.20;1.27;;;;;;;20.64;50.93;100021.09;1716851;83;21240;-60
2022/09/25 08:33:19;;;;;;;2.30;1.10;;;;;;;20.74;49.17;100024.88;1716987;83;21040;-55
2022/09/25 08:35:59;;;;;;;2.63;1.10;;;;;;;20.96;48.67;100036.67;1717108;83;20895;-56
2022/09/25 08:38:27;;;;;;;1.53;0.97;;;;;;;21.31;48.72;100035.50;1716897;83;20974;-57
2022/09/25 08:41:07;;;;;;;3.87;1.20;;;;;;;;;;1716615;83;20982;-59
2022/09/25 08:43:38;;;;;;;3.30;1.10;;;;;;;22.32;45.71;100024.88;1717239;83;21147;-56
2022/09/25 08:49:08;;;;;;;2.47;1.30;;;;;;;23.04;42.38;100017.59;1733279;81;21055;-57
2022/09/25 08:51:44;;;;;;;4.23;1.00;;;;;;;23.25;41.95;100020.16;1734082;82;21010;-59
2022/09/25 08:54:30;;;;;;;2.20;1.20;;;;;;;23.46;41.18;100008.37;1734073;82;20991;-56
2022/09/25 08:57:36;;;;;;;2.93;1.10;;;;;;;23.57;39.24;100017.09;1734813;82;21137;-57
2022/09/25 09:00:11;;;;;;;2.77;1.20;;;;;;;23.33;38.28;100014.27;1734764;82;20881;-57
2022/09/25 09:02:44;;;;;;;3.53;1.20;;;;;;;23.11;39.67;100016.49;1720269;81;21051;-60
2022/09/25 09:05:28;;;;;;;4.07;1.30;;;;;;;23.16;39.70;100007.19;1742401;81;21068;-57
2022/09/25 09:08:00;;;;;;;1.43;0.80;;;;;;;23.30;39.67;100022.82;1745568;81;20965;-56
2022/09/25 09:10:53;;;;;;;1.77;1.00;;;;;;;23.39;38.06;100015.85;1728260;81;21868;-60
2022/09/25 09:13:29;;;;;;;1.30;1.00;;;;;;;23.18;38.54;100024.98;1736662;82;21497;-56
2022/09/25 09:16:02;;;;;;;1.40;0.90;;;;;;;23.07;37.97;100017.59;1734793;82;20944;-60
2022/09/25 09:18:32;;;;;;;1.57;1.00;;;;;;;22.67;39.68;100033.87;1719586;82;21010;-56
2022/09/25 09:21:05;;;;;;;1.80;1.00;;;;;;;22.54;38.92;100029.91;1734800;82;20889;-56
2022/09/25 09:23:46;;;;;;;1.97;1.00;;;;;;;22.20;39.00;100022.20;1734837;82;21899;-56
2022/09/25 09:26:24;;;;;;;1.45;0.88;;;;;;;21.90;39.52;100013.69;1721863;81;21007;-58
2022/09/25 09:28:59;;;;;;;1.20;0.70;;;;;;;21.64;39.64;100022.92;1720647;81;21412;-56
2022/09/25 09:31:48;;;;;;;6.00;1.50;;;;;;;21.55;40.79;100040.38;1695282;83;21621;-60
2022/09/25 09:34:56;;;;;;;1.30;0.80;;;;;;;21.72;40.45;100030.36;1689953;84;20961;-56
2022/09/25 09:37:52;;;;;;;1.63;1.00;;;;;;;21.66;41.32;100031.93;1664754;83;22218;-56
2022/09/25 09:41:04;;;;;;;2.77;1.20;;;;;;;21.65;40.64;100029.81;1699758;84;21423;-59
2022/09/25 09:43:43;;;;;;;1.57;1.00;;;;;;;21.37;40.08;100024.44;1674263;85;21048;-56
2022/09/25 09:46:18;;;;;;;1.83;0.87;;;;;;;21.07;41.48;100033.81;1699711;84;20961;-56
2022/09/25 09:49:13;;;;;;;1.97;1.20;;;;;;;21.11;41.56;100022.97;1674324;85;21064;-56
2022/09/25 09:52:04;;;;;;;2.70;1.03;;;;;;;21.47;41.52;100029.75;1699227;82;22392;-57
2022/09/25 09:54:56;;;;;;;2.03;1.00;;;;;;;21.69;40.72;100024.78;1709077;83;20978;-56
2022/09/25 09:57:30;;;;;;;2.20;0.93;;;;;;;21.86;40.69;100028.02;1711445;83;21128;-56
2022/09/25 10:00:13;;;;;;;1.50;0.73;;;;;;;22.02;39.85;100030.94;1711204;83;20907;-56
2022/09/25 10:03:00;;;;;;;2.37;0.80;;;;;;;22.29;38.75;100019.30;1709084;83;21030;-58
2022/09/25 10:05:33;;;;;;;1.47;0.87;;;;;;;22.34;38.11;100014.77;1688347;83;21253;-58
2022/09/25 10:08:00;;;;;;;4.40;2.43;;;;;;;22.19;38.08;100023.27;1710698;83;20990;-60
2022/09/25 10:10:40;;;;;;;2.77;1.20;;;;;;;21.76;38.17;100024.00;1710489;83;21883;-56
2022/09/25 10:13:31;;;;;;;2.17;1.20;;;;;;;21.21;38.50;100038.10;1711280;83;21536;-56
2022/09/25 10:16:18;;;;;;;2.70;1.10;;;;;;;20.76;39.77;100033.36;1685645;83;21007;-56
2022/09/25 10:19:05;;;;;;;4.63;2.90;;;;;;;20.50;40.78;100049.63;1711668;83;22511;-59
2022/09/25 10:21:40;;;;;;;2.57;1.30;;;;;;;20.31;41.47;100039.38;1711157;83;21458;-57
2022/09/25 10:24:07;;;;;;;2.23;1.13;;;;;;;20.07;41.65;100051.33;1715366;82;21093;-57
2022/09/25 10:26:38;;;;;;;2.27;1.10;;;;;;;19.95;43.24;100048.84;1713750;82;21056;-61
2022/09/25 10:29:23;;;;;;;2.70;1.00;;;;;;;20.09;44.10;100042.09;1710462;83;21033;-59
2022/09/25 10:31:59;;;;;;;1.60;0.80;;;;;;;20.24;42.68;100050.70;1711186;83;22387;-58
2022/09/25 10:34:28;;;;;;;1.53;0.70;;;;;;;20.14;43.32;100042.13;1710620;83;21598;-58
2022/09/25 10:36:55;;;;;;;1.53;1.00;;;;;;;19.96;43.49;100053.07;1710473;83;21085;-58
2022/09/25 10:39:35;;;;;;;1.73;0.80;;;;;;;19.87;43.65;100049.29;1710504;83;21489;-57
2022/09/25 10:42:08;;;;;;;1.45;0.90;;;;;;;19.65;43.98;100054.60;1710143;83;20933;-62
2022/09/25 10:44:37;;;;;;;1.90;0.87;;;;;;;19.30;45.26;100057.08;1710078;83;21520;-57
2022/09/25 10:50:22;;;;;;;1.87;1.00;;;;;;;18.82;46.54;100064.34;1710787;83;21474;-57
2022/09/25 10:52:58;;;;;;;1.90;1.10;;;;;;;18.83;47.89;100060.67;1709692;83;21455;-58
2022/09/25 10:55:29;;;;;;;2.00;0.90;;;;;;;19.24;49.20;100051.44;1709772;83;20977;-59
2022/09/25 10:58:15;;;;;;;1.70;1.00;;;;;;;19.74;49.15;100049.70;1710450;83;21283;-58
2022/09/25 11:00:53;;;;;;;1.83;1.00;;;;;;;20.03;45.67;100053.67;1711134;83;20916;-58
2022/09/25 11:03:31;;;;;;;2.90;0.80;;;;;;;19.87;45.01;100062.52;1706432;82;20970;-59
2022/09/25 11:06:06;;;;;;;2.40;0.80;;;;;;;19.54;46.00;100058.94;1711166;83;20979;-57
2022/09/25 11:08:40;;;;;;;1.53;0.70;;;;;;;19.39;46.58;100062.73;1696563;83;21028;-63
2022/09/25 11:11:09;;;;;;;1.80;0.83;;;;;;;19.22;47.88;100063.31;1701905;84;20983;-58
2022/09/25 11:13:44;;;;;;;3.73;0.70;;;;;;;19.41;50.40;100057.48;1702262;84;20955;-57
2022/09/25 11:16:11;;;;;;;1.97;0.87;;;;;;;19.79;48.46;100051.06;1701971;84;20975;-58
2022/09/25 11:18:51;;;;;;;2.20;1.00;;;;;;;20.01;45.49;100045.73;1701546;84;21042;-63
2022/09/25 11:21:45;;;;;;;2.07;0.60;;;;;;;19.79;44.79;100044.45;1699544;84;20959;-57
2022/09/25 11:24:40;;;;;;;1.33;0.80;;;;;;;19.46;45.57;100059.38;1701800;84;22233;-63
2022/09/25 11:27:24;;;;;;;1.70;0.80;;;;;;;19.15;46.49;100062.96;1702216;84;21030;-58
2022/09/25 11:30:03;;;;;;;4.90;1.00;;;;;;;18.93;47.94;100064.77;1693670;84;21101;-57
2022/09/25 11:32:47;;;;;;;1.90;0.90;;;;;;;18.90;49.78;100063.92;1701867;84;21380;-57
2022/09/25 11:35:39;;;;;;;3.97;1.70;;;;;;;18.88;50.15;100062.86;1700894;84;20904;-60
2022/09/25 11:41:10;;;;;;;1.73;1.03;;;;;;;18.80;50.98;100067.75;1702707;84;21300;-56
2022/09/25 11:41:11;;;;;;;1.70;0.90;;;;;;;18.72;52.32;100062.36;1698368;84;22064;-57
2022/09/25 11:44:31;;;;;;;3.97;1.93;;;;;;;18.61;51.80;100063.22;1702382;84;20994;-56
2022/09/25 11:47:40;;;;;;;6.13;1.43;;;;;;;18.43;51.98;100055.80;1676845;84;21409;-56
2022/09/25 11:50:14;;;;;;;1.90;0.83;;;;;;;18.21;52.86;100067.56;1702262;84;21010;-57
2022/09/25 11:52:50;;;;;;;1.77;0.90;;;;;;;17.92;55.09;100074.72;1701270;84;21875;-63
2022/09/25 11:55:40;;;;;;;1.97;1.00;;;;;;;18.03;57.79;100082.27;1702336;84;21494;-56
2022/09/25 11:58:25;;;;;;;2.97;1.10;;;;;;;18.26;60.15;100080.07;1702348;83;21514;-63
2022/09/25 12:01:26;;;;;;;2.20;1.00;;;;;;;18.47;55.33;100074.59;1702613;84;21779;-56
2022/09/25 12:04:15;;;;;;;2.37;1.10;;;;;;;18.57;55.78;100080.05;1701153;84;21003;-57
2022/09/25 12:07:16;;;;;;;1.33;0.73;;;;;;;18.84;54.19;100082.08;1702398;84;47062;-56
2022/09/25 12:10:20;;;;;;;2.30;0.80;;;;;;;19.23;51.71;100073.63;1702442;84;21626;-57